Hector N — 3FEL3 — position and weather

sailwx.info

Track history (hours):
 
Tides and Currents Weather Stations Pressure Air Temp Water Temp Dewpoint Dewpoint Depression Visibility Wind Speed Wind Dir Waves Ship Positions

Hector N

Last reported at 2017-Dec-14 00:57 UTC. Time now 2017-Dec-15 21:25 UTC.
Position N 09°09' W 079°49'.

Length 183 m; draft 10.7 m.

Type: Ship. MMSI: 356251000.

Date/timePositionNaut miles runAvg speedWind from/ knotsBaromVisibWave heightAir tempDewpointWater temp
2017-Dec-14 00:57N 09°09' W 079°49'4 9.2
2017-Dec-14 00:30N 09°11' W 079°52'5 9.3
2017-Dec-14 00:00N 09°14' W 079°55'2 4.2
2017-Dec-13 23:30N 09°16' W 079°55'0 0.6
2017-Dec-13 23:00N 09°17' W 079°55'0 0.7
2017-Dec-13 22:30N 09°17' W 079°55'1 2.2
2017-Dec-13 22:00N 09°18' W 079°55'3 5.5
2017-Dec-13 21:30N 09°21' W 079°55'2 3.8
2017-Dec-13 20:59N 09°23' W 079°56'0 0.2
2017-Dec-13 20:29N 09°23' W 079°56'0 0.0
2017-Dec-13 19:59N 09°23' W 079°56'0 0.0
2017-Dec-13 19:29N 09°23' W 079°56'0 0.0
2017-Dec-13 18:59N 09°23' W 079°56'0 0.1
2017-Dec-13 18:29N 09°23' W 079°56'0 0.0
2017-Dec-13 17:59N 09°23' W 079°56'0 0.0
2017-Dec-13 17:29N 09°23' W 079°56'0 0.0
2017-Dec-13 16:59N 09°23' W 079°56'0 0.0
2017-Dec-13 16:29N 09°23' W 079°56'0 0.0
2017-Dec-13 15:59N 09°23' W 079°56'0 0.0
2017-Dec-13 15:29N 09°23' W 079°56'0 0.0
2017-Dec-13 14:59N 09°23' W 079°56'0 0.0
2017-Dec-13 14:29N 09°23' W 079°56'0 0.0
2017-Dec-13 13:59N 09°23' W 079°56'0 0.0
2017-Dec-13 13:29N 09°23' W 079°56'0 0.0
2017-Dec-13 12:59N 09°23' W 079°56'0 0.0
2017-Dec-13 12:29N 09°23' W 079°56'0 0.0
2017-Dec-13 11:59N 09°23' W 079°56'0 0.0
2017-Dec-13 11:29N 09°23' W 079°56'0 0.0
2017-Dec-13 10:59N 09°23' W 079°56'0 0.0
2017-Dec-13 10:26N 09°23' W 079°56'0 0.0
2017-Dec-13 09:59N 09°23' W 079°56'0 0.0
2017-Dec-13 09:29N 09°23' W 079°56'0 0.0
2017-Dec-13 08:59N 09°23' W 079°56'0 0.0
2017-Dec-13 08:29N 09°23' W 079°56'0 0.1
2017-Dec-13 07:59N 09°23' W 079°56'0 0.0
2017-Dec-13 07:29N 09°23' W 079°56'0 0.0
2017-Dec-13 06:59N 09°23' W 079°56'0 0.0
2017-Dec-13 06:29N 09°23' W 079°56'0 0.0
2017-Dec-13 05:59N 09°23' W 079°56'0 0.0
2017-Dec-13 05:29N 09°23' W 079°56'0 0.0
2017-Dec-13 04:59N 09°23' W 079°56'0 0.0
2017-Dec-13 04:29N 09°23' W 079°56'0 0.0
2017-Dec-13 03:59N 09°23' W 079°56'0 0.0
2017-Dec-13 03:29N 09°23' W 079°56'0 0.0
2017-Dec-13 02:59N 09°23' W 079°56'0 0.0
2017-Dec-13 02:29N 09°23' W 079°56'0 0.0
2017-Dec-13 01:59N 09°23' W 079°56'0 0.0
2017-Dec-13 01:29N 09°23' W 079°56'0 0.0
2017-Dec-13 00:59N 09°23' W 079°56'0 0.0
2017-Dec-13 00:29N 09°23' W 079°56'0 0.0
2017-Dec-12 23:59N 09°23' W 079°56'0 0.0
2017-Dec-12 23:29N 09°23' W 079°56'0 0.0
2017-Dec-12 22:59N 09°23' W 079°56'0 0.1
2017-Dec-12 22:29N 09°23' W 079°56'0 0.0
2017-Dec-12 21:59N 09°23' W 079°56'0 0.0
2017-Dec-12 21:29N 09°23' W 079°56'0 0.0
2017-Dec-12 20:59N 09°23' W 079°56'0 0.0
2017-Dec-12 20:29N 09°23' W 079°56'0 0.0
2017-Dec-12 19:59N 09°23' W 079°56'0 0.0
2017-Dec-12 19:29N 09°23' W 079°56'0 0.0
2017-Dec-12 18:59N 09°23' W 079°56'0 0.0
2017-Dec-12 18:29N 09°23' W 079°56'0 0.0
2017-Dec-12 17:59N 09°23' W 079°56'0 0.0
2017-Dec-12 17:30N 09°23' W 079°56'0 0.3
2017-Dec-12 17:00N 09°23' W 079°56'3 6.0
2017-Dec-12 16:31N 09°25' W 079°55'1 2.8
2017-Dec-12 16:01N 09°25' W 079°57'1 1.3
2017-Dec-12 15:30N 09°25' W 079°57'0 0.0
2017-Dec-12 15:00N 09°25' W 079°57'0 0.1
2017-Dec-12 14:30N 09°25' W 079°57'0 0.0
2017-Dec-12 14:00N 09°25' W 079°57'0 0.1
2017-Dec-12 13:30N 09°25' W 079°57'0 0.0
2017-Dec-12 12:57N 09°25' W 079°57'0 0.0
2017-Dec-12 12:30N 09°25' W 079°57'0 0.0
2017-Dec-12 12:00N 09°25' W 079°57'0 0.0
2017-Dec-12 11:27N 09°25' W 079°57'0 0.0
2017-Dec-12 11:00N 09°25' W 079°57'0 0.0
2017-Dec-12 10:30N 09°25' W 079°57'0 0.0
2017-Dec-12 10:00N 09°25' W 079°57'0 0.0
2017-Dec-12 09:27N 09°25' W 079°57'0 0.0
2017-Dec-12 09:00N 09°25' W 079°57'0 0.0
2017-Dec-12 08:30N 09°25' W 079°57'0 0.0
2017-Dec-12 08:00N 09°25' W 079°57'0 0.0
2017-Dec-12 07:27N 09°25' W 079°57'0 0.0
2017-Dec-12 06:57N 09°25' W 079°57'0 0.1
2017-Dec-12 06:30N 09°25' W 079°57'0 0.0
2017-Dec-12 06:00N 09°25' W 079°57'0 0.0
2017-Dec-12 05:30N 09°25' W 079°57'0 0.0
2017-Dec-12 05:00N 09°25' W 079°57'0 0.1
2017-Dec-12 04:30N 09°25' W 079°57'0 0.0
2017-Dec-12 03:57N 09°25' W 079°57'0 0.0
2017-Dec-12 03:30N 09°25' W 079°57'0 0.0
2017-Dec-12 03:00N 09°25' W 079°57'0 0.0
2017-Dec-12 02:30N 09°25' W 079°57'0 0.0
2017-Dec-12 02:00N 09°25' W 079°57'0 0.0
2017-Dec-12 01:30N 09°25' W 079°57'0 0.0
2017-Dec-12 01:00N 09°25' W 079°57'0 0.0
2017-Dec-12 00:30N 09°25' W 079°57'0 0.1
2017-Dec-12 00:00N 09°25' W 079°57'0 0.1
2017-Dec-11 23:30N 09°25' W 079°57'0 0.0
2017-Dec-11 23:00N 09°25' W 079°57'0 0.0
2017-Dec-11 22:30N 09°25' W 079°57'0 0.0
2017-Dec-11 22:00N 09°25' W 079°57'0 0.0
2017-Dec-11 21:30N 09°25' W 079°57'0 0.0
2017-Dec-11 21:00N 09°25' W 079°57'0 0.0
2017-Dec-11 20:30N 09°25' W 079°57'0 0.0
2017-Dec-11 20:00N 09°25' W 079°57'0 0.0
2017-Dec-11 19:30N 09°25' W 079°57'0 0.1
2017-Dec-11 19:00N 09°25' W 079°57'0 0.0
2017-Dec-11 18:30N 09°25' W 079°57'0 0.0
2017-Dec-11 18:00N 09°25' W 079°57'0 0.0
2017-Dec-11 17:30N 09°25' W 079°57'0 0.0
2017-Dec-11 17:00N 09°25' W 079°57'0 0.0
2017-Dec-11 16:27N 09°25' W 079°57'0 0.0
2017-Dec-11 16:00N 09°25' W 079°57'0 0.0
2017-Dec-11 15:21N 09°25' W 079°57'0 0.1
2017-Dec-11 15:00N 09°25' W 079°57'0 0.0
2017-Dec-11 14:27N 09°25' W 079°57'0 0.0
2017-Dec-11 14:00N 09°25' W 079°57'0 0.1
2017-Dec-11 13:30N 09°25' W 079°57'0 0.1
2017-Dec-11 13:00N 09°25' W 079°57'0 0.0
2017-Dec-11 12:30N 09°25' W 079°57'0 0.0
2017-Dec-11 12:00N 09°25' W 079°57'0 0.0
2017-Dec-11 11:30N 09°25' W 079°57'0 0.0
2017-Dec-11 11:00N 09°25' W 079°57'0 0.1
2017-Dec-11 10:30N 09°25' W 079°57'0 0.0
2017-Dec-11 10:00N 09°25' W 079°57'0 0.0
2017-Dec-11 09:30N 09°25' W 079°57'0 0.0
2017-Dec-11 09:00N 09°25' W 079°57'0 0.0
2017-Dec-11 08:30N 09°25' W 079°57'0 0.0
2017-Dec-11 08:00N 09°25' W 079°57'0 0.0
2017-Dec-11 07:30N 09°25' W 079°57'0 0.0
2017-Dec-11 07:00N 09°25' W 079°57'0 0.0
2017-Dec-11 06:30N 09°25' W 079°57'0 0.0
2017-Dec-11 06:00N 09°25' W 079°57'0 0.0
2017-Dec-11 05:30N 09°25' W 079°57'0 0.0
2017-Dec-11 05:00N 09°25' W 079°57'0 0.0
2017-Dec-11 04:30N 09°25' W 079°57'0 0.0
2017-Dec-11 04:00N 09°25' W 079°57'0 0.0
2017-Dec-11 03:30N 09°25' W 079°57'0 0.0
2017-Dec-11 03:00N 09°25' W 079°57'0 0.0
2017-Dec-11 02:30N 09°25' W 079°57'0 0.0
2017-Dec-11 02:00N 09°25' W 079°57'0 0.0
2017-Dec-11 01:30N 09°25' W 079°57'0 0.0
2017-Dec-11 01:00N 09°25' W 079°57'0 0.0
2017-Dec-11 00:30N 09°25' W 079°57'0 0.0
2017-Dec-11 00:00N 09°25' W 079°57'0 0.1
2017-Dec-10 23:30N 09°25' W 079°57'0 0.1
2017-Dec-10 22:54N 09°25' W 079°57'0 0.0
2017-Dec-10 22:27N 09°25' W 079°57'0 0.0
2017-Dec-10 22:00N 09°25' W 079°57'0 0.1
2017-Dec-10 21:30N 09°25' W 079°57'0 0.0
2017-Dec-10 21:00N 09°25' W 079°57'0 0.1
2017-Dec-10 20:30N 09°25' W 079°57'0 0.0
2017-Dec-10 20:00N 09°25' W 079°57'0 0.0
2017-Dec-10 19:30N 09°25' W 079°57'0 0.0
2017-Dec-10 19:00N 09°25' W 079°57'0 0.0
2017-Dec-10 18:30N 09°25' W 079°57'0 0.1
2017-Dec-10 18:00N 09°25' W 079°57'0 0.0
2017-Dec-10 17:27N 09°25' W 079°57'0 0.6
2017-Dec-10 17:00N 09°25' W 079°57'2 4.0
2017-Dec-10 16:30N 09°26' W 079°56'4 8.7
2017-Dec-10 16:00N 09°30' W 079°54'5 9.1
2017-Dec-10 15:28N 09°35' W 079°53'5 9.6
2017-Dec-10 14:56N 09°40' W 079°52'  
Track history (hours):
 
Tides and Currents Weather Stations Pressure Air Temp Water Temp Dewpoint Dewpoint Depression Visibility Wind Speed Wind Dir Waves Ship Positions

Hector N

Last reported at 2017-Dec-14 00:57 UTC. Time now 2017-Dec-15 21:25 UTC.
Position N 09°09' W 079°49'.

Length 183 m; draft 10.7 m.

Type: Ship. MMSI: 356251000.

Date/timePositionNaut miles runAvg speedWind from/ knotsBaromVisibWave heightAir tempDewpointWater temp
2017-Dec-14 00:57N 09°09' W 079°49'4 9.2
2017-Dec-14 00:30N 09°11' W 079°52'5 9.3
2017-Dec-14 00:00N 09°14' W 079°55'2 4.2
2017-Dec-13 23:30N 09°16' W 079°55'0 0.6
2017-Dec-13 23:00N 09°17' W 079°55'0 0.7
2017-Dec-13 22:30N 09°17' W 079°55'1 2.2
2017-Dec-13 22:00N 09°18' W 079°55'3 5.5
2017-Dec-13 21:30N 09°21' W 079°55'2 3.8
2017-Dec-13 20:59N 09°23' W 079°56'0 0.2
2017-Dec-13 20:29N 09°23' W 079°56'0 0.0
2017-Dec-13 19:59N 09°23' W 079°56'0 0.0
2017-Dec-13 19:29N 09°23' W 079°56'0 0.0
2017-Dec-13 18:59N 09°23' W 079°56'0 0.1
2017-Dec-13 18:29N 09°23' W 079°56'0 0.0
2017-Dec-13 17:59N 09°23' W 079°56'0 0.0
2017-Dec-13 17:29N 09°23' W 079°56'0 0.0
2017-Dec-13 16:59N 09°23' W 079°56'0 0.0
2017-Dec-13 16:29N 09°23' W 079°56'0 0.0
2017-Dec-13 15:59N 09°23' W 079°56'0 0.0
2017-Dec-13 15:29N 09°23' W 079°56'0 0.0
2017-Dec-13 14:59N 09°23' W 079°56'0 0.0
2017-Dec-13 14:29N 09°23' W 079°56'0 0.0
2017-Dec-13 13:59N 09°23' W 079°56'0 0.0
2017-Dec-13 13:29N 09°23' W 079°56'0 0.0
2017-Dec-13 12:59N 09°23' W 079°56'0 0.0
2017-Dec-13 12:29N 09°23' W 079°56'0 0.0
2017-Dec-13 11:59N 09°23' W 079°56'0 0.0
2017-Dec-13 11:29N 09°23' W 079°56'0 0.0
2017-Dec-13 10:59N 09°23' W 079°56'0 0.0
2017-Dec-13 10:26N 09°23' W 079°56'0 0.0
2017-Dec-13 09:59N 09°23' W 079°56'0 0.0
2017-Dec-13 09:29N 09°23' W 079°56'0 0.0
2017-Dec-13 08:59N 09°23' W 079°56'0 0.0
2017-Dec-13 08:29N 09°23' W 079°56'0 0.1
2017-Dec-13 07:59N 09°23' W 079°56'0 0.0
2017-Dec-13 07:29N 09°23' W 079°56'0 0.0
2017-Dec-13 06:59N 09°23' W 079°56'0 0.0
2017-Dec-13 06:29N 09°23' W 079°56'0 0.0
2017-Dec-13 05:59N 09°23' W 079°56'0 0.0
2017-Dec-13 05:29N 09°23' W 079°56'0 0.0
2017-Dec-13 04:59N 09°23' W 079°56'0 0.0
2017-Dec-13 04:29N 09°23' W 079°56'0 0.0
2017-Dec-13 03:59N 09°23' W 079°56'0 0.0
2017-Dec-13 03:29N 09°23' W 079°56'0 0.0
2017-Dec-13 02:59N 09°23' W 079°56'0 0.0
2017-Dec-13 02:29N 09°23' W 079°56'0 0.0
2017-Dec-13 01:59N 09°23' W 079°56'0 0.0
2017-Dec-13 01:29N 09°23' W 079°56'0 0.0
2017-Dec-13 00:59N 09°23' W 079°56'0 0.0
2017-Dec-13 00:29N 09°23' W 079°56'0 0.0
2017-Dec-12 23:59N 09°23' W 079°56'0 0.0
2017-Dec-12 23:29N 09°23' W 079°56'0 0.0
2017-Dec-12 22:59N 09°23' W 079°56'0 0.1
2017-Dec-12 22:29N 09°23' W 079°56'0 0.0
2017-Dec-12 21:59N 09°23' W 079°56'0 0.0
2017-Dec-12 21:29N 09°23' W 079°56'0 0.0
2017-Dec-12 20:59N 09°23' W 079°56'0 0.0
2017-Dec-12 20:29N 09°23' W 079°56'0 0.0
2017-Dec-12 19:59N 09°23' W 079°56'0 0.0
2017-Dec-12 19:29N 09°23' W 079°56'0 0.0
2017-Dec-12 18:59N 09°23' W 079°56'0 0.0
2017-Dec-12 18:29N 09°23' W 079°56'0 0.0
2017-Dec-12 17:59N 09°23' W 079°56'0 0.0
2017-Dec-12 17:30N 09°23' W 079°56'0 0.3
2017-Dec-12 17:00N 09°23' W 079°56'3 6.0
2017-Dec-12 16:31N 09°25' W 079°55'1 2.8
2017-Dec-12 16:01N 09°25' W 079°57'1 1.3
2017-Dec-12 15:30N 09°25' W 079°57'0 0.0
2017-Dec-12 15:00N 09°25' W 079°57'0 0.1
2017-Dec-12 14:30N 09°25' W 079°57'0 0.0
2017-Dec-12 14:00N 09°25' W 079°57'0 0.1
2017-Dec-12 13:30N 09°25' W 079°57'0 0.0
2017-Dec-12 12:57N 09°25' W 079°57'0 0.0
2017-Dec-12 12:30N 09°25' W 079°57'0 0.0
2017-Dec-12 12:00N 09°25' W 079°57'0 0.0
2017-Dec-12 11:27N 09°25' W 079°57'0 0.0
2017-Dec-12 11:00N 09°25' W 079°57'0 0.0
2017-Dec-12 10:30N 09°25' W 079°57'0 0.0
2017-Dec-12 10:00N 09°25' W 079°57'0 0.0
2017-Dec-12 09:27N 09°25' W 079°57'0 0.0
2017-Dec-12 09:00N 09°25' W 079°57'0 0.0
2017-Dec-12 08:30N 09°25' W 079°57'0 0.0
2017-Dec-12 08:00N 09°25' W 079°57'0 0.0
2017-Dec-12 07:27N 09°25' W 079°57'0 0.0
2017-Dec-12 06:57N 09°25' W 079°57'0 0.1
2017-Dec-12 06:30N 09°25' W 079°57'0 0.0
2017-Dec-12 06:00N 09°25' W 079°57'0 0.0
2017-Dec-12 05:30N 09°25' W 079°57'0 0.0
2017-Dec-12 05:00N 09°25' W 079°57'0 0.1
2017-Dec-12 04:30N 09°25' W 079°57'0 0.0
2017-Dec-12 03:57N 09°25' W 079°57'0 0.0
2017-Dec-12 03:30N 09°25' W 079°57'0 0.0
2017-Dec-12 03:00N 09°25' W 079°57'0 0.0
2017-Dec-12 02:30N 09°25' W 079°57'0 0.0
2017-Dec-12 02:00N 09°25' W 079°57'0 0.0
2017-Dec-12 01:30N 09°25' W 079°57'0 0.0
2017-Dec-12 01:00N 09°25' W 079°57'0 0.0
2017-Dec-12 00:30N 09°25' W 079°57'0 0.1
2017-Dec-12 00:00N 09°25' W 079°57'0 0.1
2017-Dec-11 23:30N 09°25' W 079°57'0 0.0
2017-Dec-11 23:00N 09°25' W 079°57'0 0.0
2017-Dec-11 22:30N 09°25' W 079°57'0 0.0
2017-Dec-11 22:00N 09°25' W 079°57'0 0.0
2017-Dec-11 21:30N 09°25' W 079°57'0 0.0
2017-Dec-11 21:00N 09°25' W 079°57'0 0.0
2017-Dec-11 20:30N 09°25' W 079°57'0 0.0
2017-Dec-11 20:00N 09°25' W 079°57'0 0.0
2017-Dec-11 19:30N 09°25' W 079°57'0 0.1
2017-Dec-11 19:00N 09°25' W 079°57'0 0.0
2017-Dec-11 18:30N 09°25' W 079°57'0 0.0
2017-Dec-11 18:00N 09°25' W 079°57'0 0.0
2017-Dec-11 17:30N 09°25' W 079°57'0 0.0
2017-Dec-11 17:00N 09°25' W 079°57'0 0.0
2017-Dec-11 16:27N 09°25' W 079°57'0 0.0
2017-Dec-11 16:00N 09°25' W 079°57'0 0.0
2017-Dec-11 15:21N 09°25' W 079°57'0 0.1
2017-Dec-11 15:00N 09°25' W 079°57'0 0.0
2017-Dec-11 14:27N 09°25' W 079°57'0 0.0
2017-Dec-11 14:00N 09°25' W 079°57'0 0.1
2017-Dec-11 13:30N 09°25' W 079°57'0 0.1
2017-Dec-11 13:00N 09°25' W 079°57'0 0.0
2017-Dec-11 12:30N 09°25' W 079°57'0 0.0
2017-Dec-11 12:00N 09°25' W 079°57'0 0.0
2017-Dec-11 11:30N 09°25' W 079°57'0 0.0
2017-Dec-11 11:00N 09°25' W 079°57'0 0.1
2017-Dec-11 10:30N 09°25' W 079°57'0 0.0
2017-Dec-11 10:00N 09°25' W 079°57'0 0.0
2017-Dec-11 09:30N 09°25' W 079°57'0 0.0
2017-Dec-11 09:00N 09°25' W 079°57'0 0.0
2017-Dec-11 08:30N 09°25' W 079°57'0 0.0
2017-Dec-11 08:00N 09°25' W 079°57'0 0.0
2017-Dec-11 07:30N 09°25' W 079°57'0 0.0
2017-Dec-11 07:00N 09°25' W 079°57'0 0.0
2017-Dec-11 06:30N 09°25' W 079°57'0 0.0
2017-Dec-11 06:00N 09°25' W 079°57'0 0.0
2017-Dec-11 05:30N 09°25' W 079°57'0 0.0
2017-Dec-11 05:00N 09°25' W 079°57'0 0.0
2017-Dec-11 04:30N 09°25' W 079°57'0 0.0
2017-Dec-11 04:00N 09°25' W 079°57'0 0.0
2017-Dec-11 03:30N 09°25' W 079°57'0 0.0
2017-Dec-11 03:00N 09°25' W 079°57'0 0.0
2017-Dec-11 02:30N 09°25' W 079°57'0 0.0
2017-Dec-11 02:00N 09°25' W 079°57'0 0.0
2017-Dec-11 01:30N 09°25' W 079°57'0 0.0
2017-Dec-11 01:00N 09°25' W 079°57'0 0.0
2017-Dec-11 00:30N 09°25' W 079°57'0 0.0
2017-Dec-11 00:00N 09°25' W 079°57'0 0.1
2017-Dec-10 23:30N 09°25' W 079°57'0 0.1
2017-Dec-10 22:54N 09°25' W 079°57'0 0.0
2017-Dec-10 22:27N 09°25' W 079°57'0 0.0
2017-Dec-10 22:00N 09°25' W 079°57'0 0.1
2017-Dec-10 21:30N 09°25' W 079°57'0 0.0
2017-Dec-10 21:00N 09°25' W 079°57'0 0.1
2017-Dec-10 20:30N 09°25' W 079°57'0 0.0
2017-Dec-10 20:00N 09°25' W 079°57'0 0.0
2017-Dec-10 19:30N 09°25' W 079°57'0 0.0
2017-Dec-10 19:00N 09°25' W 079°57'0 0.0
2017-Dec-10 18:30N 09°25' W 079°57'0 0.1
2017-Dec-10 18:00N 09°25' W 079°57'0 0.0
2017-Dec-10 17:27N 09°25' W 079°57'0 0.6
2017-Dec-10 17:00N 09°25' W 079°57'2 4.0
2017-Dec-10 16:30N 09°26' W 079°56'4 8.7
2017-Dec-10 16:00N 09°30' W 079°54'5 9.1
2017-Dec-10 15:28N 09°35' W 079°53'5 9.6
2017-Dec-10 14:56N 09°40' W 079°52'  

Dump ship's entire track history